createdAt,value
2018-01-25T06:25:57.715Z,10.50
2018-01-25T06:28:29.609Z,11.57
2018-01-25T06:31:02.258Z,7.73
2018-01-25T06:33:35.743Z,11.53
2018-01-25T06:36:07.614Z,7.40
2018-01-25T06:38:39.498Z,10.00
2018-01-25T06:41:12.141Z,12.10
2018-01-25T06:43:44.014Z,8.37
2018-01-25T06:46:15.894Z,11.27
2018-01-25T06:48:48.541Z,12.70
2018-01-25T06:51:20.661Z,11.17
2018-01-25T06:53:52.552Z,13.33
2018-01-25T06:56:24.677Z,13.70
2018-01-25T06:58:56.558Z,17.80
2018-01-25T07:01:28.430Z,14.87
2018-01-25T07:04:00.331Z,14.13
2018-01-25T07:06:32.203Z,12.27
2018-01-25T07:09:04.851Z,11.73
2018-01-25T07:11:36.715Z,12.70
2018-01-25T07:14:08.599Z,12.17
2018-01-25T07:16:41.241Z,11.30
2018-01-25T07:19:13.128Z,13.00
2018-01-25T07:21:45.002Z,12.33
2018-01-25T07:24:17.915Z,12.50
2018-01-25T07:26:49.906Z,15.00
2018-01-25T07:29:21.818Z,17.07
2018-01-25T07:31:54.732Z,14.73
2018-01-25T07:34:26.871Z,16.20
2018-01-25T07:36:58.741Z,13.93
2018-01-25T07:39:30.618Z,18.07
2018-01-25T07:42:02.479Z,13.87
2018-01-25T07:44:34.366Z,14.73
2018-01-25T07:47:06.228Z,15.63
2018-01-25T07:49:38.118Z,14.70
2018-01-25T07:52:10.751Z,14.63
2018-01-25T07:54:42.636Z,16.90
2018-01-25T07:57:14.510Z,16.73
2018-01-25T07:59:47.150Z,17.17
2018-01-25T08:02:19.036Z,17.50
2018-01-25T08:04:50.918Z,15.50
2018-01-25T08:07:23.550Z,18.50
2018-01-25T08:09:56.215Z,18.90
2018-01-25T08:12:28.084Z,17.17
2018-01-25T08:14:59.962Z,18.83
2018-01-25T08:17:31.842Z,20.20
2018-01-25T08:20:04.489Z,18.67
2018-01-25T08:22:36.786Z,16.50
2018-01-25T08:25:08.671Z,19.90
2018-01-25T08:27:40.543Z,16.67
2018-01-25T08:30:12.488Z,16.57
2018-01-25T08:32:45.119Z,20.73
2018-01-25T08:35:17.012Z,18.20
2018-01-25T08:37:49.659Z,20.50
2018-01-25T08:40:21.559Z,17.47
2018-01-25T08:42:54.200Z,16.73
2018-01-25T08:45:26.119Z,20.13
2018-01-25T08:47:57.982Z,19.57
2018-01-25T08:50:29.875Z,17.07
2018-01-25T08:53:02.817Z,17.60
2018-01-25T08:55:34.706Z,16.23
2018-01-25T08:58:06.580Z,19.53
2018-01-25T09:00:38.459Z,19.33
2018-01-25T09:03:10.326Z,16.60
2018-01-25T09:05:42.314Z,19.03
2018-01-25T09:08:14.947Z,20.23
2018-01-25T09:10:46.839Z,18.40
2018-01-25T09:13:19.479Z,15.70
2018-01-25T09:15:51.367Z,18.70
2018-01-25T09:18:23.235Z,18.57
2018-01-25T09:20:55.886Z,18.27
2018-01-25T09:23:27.762Z,20.93
2018-01-25T09:25:59.650Z,21.87
2018-01-25T09:28:31.522Z,19.23
2018-01-25T09:31:03.403Z,18.77
2018-01-25T09:33:35.275Z,15.20
2018-01-25T09:36:07.174Z,20.13
2018-01-25T09:38:39.047Z,17.00
2018-01-25T09:41:10.976Z,14.53
2018-01-25T09:43:42.852Z,15.87
2018-01-25T09:46:15.507Z,20.70
2018-01-25T09:48:47.529Z,18.20
2018-01-25T09:51:19.315Z,20.30
2018-01-25T09:53:51.180Z,19.47
2018-01-25T09:56:23.058Z,17.57
2018-01-25T09:58:54.923Z,14.27
2018-01-25T10:01:26.807Z,14.70
2018-01-25T10:03:58.682Z,15.07
2018-01-25T10:06:30.566Z,10.67
2018-01-25T10:09:02.438Z,16.17
2018-01-25T10:11:34.347Z,15.93
2018-01-25T10:14:06.978Z,14.03
2018-01-25T10:16:38.888Z,17.47
2018-01-25T10:19:10.758Z,14.80
2018-01-25T10:21:42.647Z,20.03
2018-01-25T10:24:14.524Z,16.13
2018-01-25T10:26:46.419Z,15.80
2018-01-25T10:29:19.069Z,12.23
2018-01-25T10:31:50.963Z,14.00
2018-01-25T10:34:23.610Z,17.73
2018-01-25T10:36:55.494Z,15.37
2018-01-25T10:39:28.170Z,11.53
2018-01-25T10:42:00.824Z,13.07
2018-01-25T10:44:32.702Z,14.03
2018-01-25T10:47:05.351Z,12.20
2018-01-25T10:49:37.239Z,16.00
2018-01-25T10:52:09.897Z,14.27
2018-01-25T10:54:42.003Z,8.83
2018-01-25T10:57:13.888Z,11.23
2018-01-25T10:59:45.763Z,9.27
2018-01-25T11:02:17.649Z,11.97
2018-01-25T11:04:49.537Z,14.20
2018-01-25T11:07:22.428Z,11.53
2018-01-25T11:09:54.299Z,15.57
2018-01-25T11:12:26.259Z,12.37
2018-01-25T11:14:58.175Z,16.73
2018-01-25T11:17:30.028Z,11.27
2018-01-25T11:20:01.902Z,9.83
2018-01-25T11:22:33.803Z,14.13
2018-01-25T11:25:05.678Z,11.53
2018-01-25T11:27:37.550Z,14.23
2018-01-25T11:30:09.429Z,15.87
2018-01-25T11:32:41.304Z,9.73
2018-01-25T11:35:13.955Z,7.90
2018-01-25T11:37:45.847Z,8.57
2018-01-25T11:40:18.478Z,8.33
2018-01-25T11:42:50.606Z,12.20
2018-01-25T11:45:22.494Z,14.13
2018-01-25T11:47:56.600Z,10.13
2018-01-25T11:50:28.479Z,8.57
2018-01-25T11:53:00.374Z,11.20
2018-01-25T11:55:32.242Z,14.40
2018-01-25T11:58:04.895Z,10.50
2018-01-25T12:00:36.771Z,8.87
2018-01-25T12:03:08.915Z,6.63
2018-01-25T12:05:41.560Z,9.03
2018-01-25T12:08:13.459Z,12.37
2018-01-25T12:10:46.127Z,7.93
2018-01-25T12:13:18.010Z,11.90
2018-01-25T12:15:50.659Z,9.80
2018-01-25T12:18:22.673Z,7.27
2018-01-25T12:20:55.567Z,8.83
2018-01-25T12:23:27.442Z,7.90
2018-01-25T12:25:59.318Z,8.60
2018-01-25T12:28:31.207Z,8.53
2018-01-25T12:31:03.070Z,10.90
2018-01-25T12:33:34.967Z,8.03
2018-01-25T12:36:06.928Z,6.47
2018-01-25T12:38:39.589Z,11.53
2018-01-25T12:41:12.218Z,14.30
2018-01-25T12:43:44.104Z,9.90
2018-01-25T12:46:16.210Z,12.73
2018-01-25T12:48:48.103Z,9.60
2018-01-25T12:51:20.155Z,13.10
2018-01-25T12:53:52.130Z,11.47
2018-01-25T12:56:23.994Z,7.40
2018-01-25T12:58:55.885Z,8.30
2018-01-25T13:01:27.758Z,15.70
2018-01-25T13:04:00.420Z,9.73
2018-01-25T13:06:32.291Z,9.27
2018-01-25T13:09:04.195Z,8.97
2018-01-25T13:11:36.067Z,7.63
2018-01-25T13:14:07.948Z,11.40
2018-01-25T13:16:40.578Z,12.40
2018-01-25T13:19:12.475Z,5.73
2018-01-25T13:21:44.350Z,9.87
2018-01-25T13:24:16.558Z,5.77
2018-01-25T13:26:48.435Z,7.73
2018-01-25T13:29:20.590Z,7.97
2018-01-25T13:31:52.462Z,6.97
2018-01-25T13:34:24.359Z,6.27
2018-01-25T13:36:56.226Z,10.03
2018-01-25T13:39:28.435Z,14.57
2018-01-25T13:42:00.298Z,6.83
2018-01-25T13:44:32.193Z,10.13
2018-01-25T13:47:04.055Z,10.90
2018-01-25T13:49:37.103Z,15.60
2018-01-25T13:52:08.995Z,12.57
2018-01-25T13:54:40.873Z,14.13
2018-01-25T13:57:12.748Z,9.60
2018-01-25T13:59:44.622Z,9.03
2018-01-25T14:02:17.273Z,10.30
2018-01-25T14:04:49.155Z,9.37
2018-01-25T14:07:21.799Z,13.77
2018-01-25T14:09:53.674Z,8.37
2018-01-25T14:12:25.550Z,13.50
2018-01-25T14:14:57.461Z,7.03
2018-01-25T14:17:29.327Z,14.50
2018-01-25T14:20:01.215Z,13.97
2018-01-25T14:22:33.090Z,8.43
2018-01-25T14:25:04.968Z,10.63
2018-01-25T14:27:37.610Z,11.67
2018-01-25T14:30:09.725Z,9.03
2018-01-25T14:32:41.596Z,10.37
2018-01-25T14:35:13.501Z,7.53
2018-01-25T14:37:45.370Z,6.13
2018-01-25T14:40:17.570Z,11.70
2018-01-25T14:42:49.455Z,5.07
2018-01-25T14:45:21.333Z,6.07
2018-01-25T14:47:53.201Z,8.07
2018-01-25T14:50:25.102Z,8.83
2018-01-25T14:52:56.979Z,4.73
2018-01-25T14:55:28.863Z,8.83
2018-01-25T14:58:00.730Z,8.43
2018-01-25T15:00:32.617Z,7.47
2018-01-25T15:03:04.484Z,7.03
2018-01-25T15:05:36.470Z,5.70
2018-01-25T15:08:09.099Z,7.50
2018-01-25T15:10:41.312Z,6.00
2018-01-25T15:13:13.193Z,7.73
2018-01-25T15:15:45.058Z,9.37
2018-01-25T15:18:16.923Z,4.57
2018-01-25T15:20:48.807Z,6.03
2018-01-25T15:23:20.662Z,5.30
2018-01-25T15:25:52.558Z,5.00
2018-01-25T15:28:25.194Z,7.03
2018-01-25T15:30:57.843Z,11.70
2018-01-25T15:33:29.755Z,8.57
2018-01-25T15:36:01.586Z,8.43
2018-01-25T15:38:33.451Z,10.17
2018-01-25T15:41:05.372Z,9.80
2018-01-25T15:43:37.535Z,7.63
2018-01-25T15:46:09.426Z,7.83
2018-01-25T15:48:41.299Z,10.33
2018-01-25T15:51:13.177Z,12.43
2018-01-25T15:53:45.047Z,11.90
2018-01-25T15:56:16.935Z,10.27
2018-01-25T15:58:48.811Z,11.13
2018-01-25T16:01:20.692Z,7.50
2018-01-25T16:03:52.556Z,8.13
2018-01-25T16:06:24.551Z,9.13
2018-01-25T16:08:56.415Z,9.10
2018-01-25T16:11:28.309Z,9.37
2018-01-25T16:14:00.179Z,13.67
2018-01-25T16:16:32.321Z,8.50
2018-01-25T16:19:04.519Z,13.73
2018-01-25T16:21:36.402Z,12.30
2018-01-25T16:24:08.315Z,10.93
2018-01-25T16:26:40.987Z,11.93
2018-01-25T16:29:13.926Z,13.30
2018-01-25T16:31:45.812Z,10.77
2018-01-25T16:34:17.670Z,9.03
2018-01-25T16:36:49.865Z,13.53
2018-01-25T16:39:21.731Z,11.47
2018-01-25T16:41:53.610Z,12.23
2018-01-25T16:44:25.491Z,12.70
2018-01-25T16:46:57.395Z,14.60
2018-01-25T16:49:30.023Z,12.57
2018-01-25T16:52:01.924Z,13.13
2018-01-25T16:54:34.565Z,10.87
2018-01-25T16:57:07.215Z,13.00
2018-01-25T16:59:39.108Z,12.13
2018-01-25T17:02:11.224Z,13.53
2018-01-25T17:04:43.103Z,11.20
2018-01-25T17:07:14.986Z,17.03
2018-01-25T17:09:46.882Z,11.03
2018-01-25T17:12:18.760Z,11.90
2018-01-25T17:14:51.753Z,11.33
2018-01-25T17:17:23.642Z,13.60
2018-01-25T17:19:55.506Z,11.13
2018-01-25T17:22:27.395Z,17.93
2018-01-25T17:24:59.267Z,21.97
2018-01-25T17:27:31.148Z,15.90
2018-01-25T17:30:03.316Z,13.67
2018-01-25T17:32:35.492Z,12.03
2018-01-25T17:35:07.354Z,11.47
2018-01-25T17:37:39.238Z,12.87
2018-01-25T17:40:11.110Z,14.43
2018-01-25T17:42:42.998Z,13.60
2018-01-25T17:45:14.890Z,12.23
2018-01-25T17:47:47.670Z,12.80
2018-01-25T17:50:19.621Z,10.17
2018-01-25T17:52:52.291Z,13.20
2018-01-25T17:55:24.156Z,12.57
2018-01-25T17:57:56.820Z,10.53
2018-01-25T18:00:28.687Z,11.53
2018-01-25T18:03:01.344Z,8.03
2018-01-25T18:05:39.027Z,9.97
2018-01-25T18:08:10.955Z,10.53
2018-01-25T18:10:43.570Z,9.53
2018-01-25T18:13:15.483Z,9.67
2018-01-25T18:15:47.384Z,11.17
2018-01-25T18:18:19.286Z,8.93
2018-01-25T18:20:51.963Z,10.17
2018-01-25T18:23:24.647Z,9.33
2018-01-25T18:25:57.308Z,9.60
2018-01-25T18:28:29.200Z,9.67
2018-01-25T18:31:01.362Z,8.90
2018-01-25T18:33:33.246Z,10.80
2018-01-25T18:36:05.117Z,7.00
2018-01-25T18:38:37.015Z,10.97
2018-01-25T18:41:08.890Z,14.83
2018-01-25T18:43:41.892Z,11.83
2018-01-25T18:46:14.546Z,11.00
2018-01-25T18:48:47.235Z,15.73
2018-01-25T18:51:19.870Z,24.47
2018-01-25T18:53:51.799Z,23.13
2018-01-25T18:56:23.664Z,21.30
2018-01-25T18:58:55.540Z,15.60
2018-01-25T19:01:27.670Z,18.77
2018-01-25T19:03:59.562Z,12.93
2018-01-25T19:06:31.424Z,13.60
2018-01-25T19:09:03.555Z,18.00
2018-01-25T19:11:35.422Z,16.70
2018-01-25T19:14:07.302Z,13.73
2018-01-25T19:16:39.167Z,18.47
2018-01-25T19:19:11.076Z,14.57
2018-01-25T19:21:42.954Z,14.47
2018-01-25T19:24:14.839Z,15.40
2018-01-25T19:26:46.728Z,15.87
2018-01-25T19:29:18.615Z,15.77
2018-01-25T19:31:51.254Z,13.87
2018-01-25T19:34:23.143Z,16.13
2018-01-25T19:36:55.014Z,19.67
2018-01-25T19:39:27.675Z,14.23
2018-01-25T19:41:59.569Z,12.73
2018-01-25T19:44:31.533Z,14.57
2018-01-25T19:47:04.180Z,15.10
2018-01-25T19:49:36.075Z,14.13
2018-01-25T19:52:07.942Z,13.20
2018-01-25T19:54:39.831Z,14.10
2018-01-25T19:57:11.704Z,17.37
2018-01-25T19:59:43.587Z,9.80
2018-01-25T20:02:15.454Z,10.97
2018-01-25T20:04:48.116Z,11.87
2018-01-25T20:07:20.016Z,12.60
2018-01-25T20:09:51.904Z,13.33
2018-01-25T20:12:23.782Z,10.10
2018-01-25T20:14:55.664Z,14.27
2018-01-25T20:17:27.530Z,14.37
